Time;durP1;ratioP1;P1;durP2;ratioP2;P2;SDS_P1;SDS_P2;PMS_P1;PMS_P2;Temp;Humidity;BMP_temperature;BMP_pressure;BME280_temperature;BME280_humidity;BME280_pressure;Samples;Min_cycle;Max_cycle;Signal;HPM_P1;HPM_P2
2022/03/05 00:00:30;;;;;;;;;;;;;;;0.82;86.06;102183.13;4987889;28;20036;-76
2022/03/05 00:02:56;;;;;;;;;;;;;;;0.84;85.32;102189.16;4988806;28;19964;-77
2022/03/05 00:05:21;;;;;;;;;;;;;;;0.82;86.09;102188.28;4988908;28;19957;-78
2022/03/05 00:07:47;;;;;;;;;;;;;;;0.79;85.40;102184.75;4991717;28;19925;-78
2022/03/05 00:10:12;;;;;;;;;;;;;;;0.73;85.71;102186.41;4989733;28;19921;-78
2022/03/05 00:12:37;;;;;;;;;;;;;;;0.67;86.19;102181.13;4987328;28;20000;-77
2022/03/05 00:15:03;;;;;;;;;;;;;;;0.67;86.14;102181.13;5004189;28;19918;-76
2022/03/05 00:17:29;;;;;;;;;;;;;;;0.63;86.41;102176.78;4990526;28;20012;-77
2022/03/05 00:19:54;;;;;;;;;;;;;;;0.54;86.72;102177.47;4978140;28;20360;-77
2022/03/05 00:22:20;;;;;;;;;;;;;;;0.53;86.82;102180.06;4969493;28;20381;-76
2022/03/05 00:24:45;;;;;;;;;;;;;;;0.51;86.22;102184.31;4989785;28;20004;-75
2022/03/05 00:27:10;;;;;;;;;;;;;;;0.45;86.04;102182.50;4988298;28;19928;-76
2022/03/05 00:29:36;;;;;;;;;;;;;;;0.46;86.21;102187.69;4988985;28;20016;-75
2022/03/05 00:32:01;;;;;;;;;;;;;;;0.43;86.69;102195.41;4987703;28;19928;-74
2022/03/05 00:34:26;;;;;;;;;;;;;;;0.41;86.56;102197.09;4990835;28;20277;-76
2022/03/05 00:36:52;;;;;;;;;;;;;;;0.32;87.34;102203.81;5003332;28;20419;-76
2022/03/05 00:39:17;;;;;;;;;;;;;;;0.30;86.79;102201.22;4988749;28;19957;-76
2022/03/05 00:41:43;;;;;;;;;;;;;;;0.25;86.90;102202.81;5020720;28;19918;-76
2022/03/05 00:44:08;;;;;;;;;;;;;;;0.23;87.17;102212.25;4987767;28;19930;-75
2022/03/05 00:46:33;;;;;;;;;;;;;;;0.20;87.82;102213.09;4991023;28;20008;-77
2022/03/05 00:48:58;;;;;;;;;;;;;;;0.18;87.91;102213.91;4989001;28;20427;-76
2022/03/05 00:51:24;;;;;;;;;;;;;;;0.13;87.77;102219.00;4988493;28;20005;-78
2022/03/05 00:53:49;;;;;;;;;;;;;;;0.14;88.13;102221.59;5003363;28;20300;-77
2022/03/05 00:56:15;;;;;;;;;;;;;;;0.09;88.80;102222.34;4987139;28;20381;-75
2022/03/05 00:58:40;;;;;;;;;;;;;;;0.11;88.07;102224.09;4991555;28;20187;-75
2022/03/05 01:01:06;;;;;;;;;;;;;;;0.06;88.87;102223.16;4988735;28;20459;-77
2022/03/05 01:03:31;;;;;;;;;;;;;;;0.03;88.84;102225.69;4989343;28;19929;-78
2022/03/05 01:05:57;;;;;;;;;;;;;;;0.08;88.12;102226.66;4989090;28;20393;-78
2022/03/05 01:08:22;;;;;;;;;;;;;;;0.05;88.52;102228.31;4987927;28;19924;-77
2022/03/05 01:10:48;;;;;;;;;;;;;;;0.01;88.24;102224.78;4989243;28;19929;-77
2022/03/05 01:13:13;;;;;;;;;;;;;;;-0.02;88.51;102228.19;4987677;28;19924;-75
2022/03/05 01:15:38;;;;;;;;;;;;;;;-0.06;89.26;102230.69;4989194;28;20021;-75
2022/03/05 01:18:04;;;;;;;;;;;;;;;-0.18;88.87;102229.59;4988408;28;20217;-76
2022/03/05 01:20:29;;;;;;;;;;;;;;;-0.20;88.97;102231.25;4985392;28;19952;-76
2022/03/05 01:22:55;;;;;;;;;;;;;;;-0.17;89.85;102236.50;5002733;28;19980;-78
2022/03/05 01:25:20;;;;;;;;;;;;;;;-0.18;89.42;102234.75;4994215;28;19933;-76
2022/03/05 01:27:45;;;;;;;;;;;;;;;-0.25;89.52;102232.00;4996360;28;19925;-77
2022/03/05 01:30:11;;;;;;;;;;;;;;;-0.21;90.06;102229.50;4992278;28;19921;-76
2022/03/05 01:32:37;;;;;;;;;;;;;;;-0.19;89.85;102233.00;4987344;28;19922;-77
2022/03/05 01:35:02;;;;;;;;;;;;;;;-0.16;89.58;102227.91;4985431;28;19966;-75
2022/03/05 01:37:27;;;;;;;;;;;;;;;-0.24;89.50;102226.91;4986388;28;19929;-76
2022/03/05 01:39:53;;;;;;;;;;;;;;;-0.29;90.30;102231.06;4986433;28;20356;-76
2022/03/05 01:42:19;;;;;;;;;;;;;;;-0.34;89.71;102224.97;4985625;28;20005;-75
2022/03/05 01:44:44;;;;;;;;;;;;;;;-0.38;90.14;102216.25;4987992;28;20000;-77
2022/03/05 01:47:09;;;;;;;;;;;;;;;-0.43;90.27;102222.16;4987693;28;20016;-76
2022/03/05 01:49:35;;;;;;;;;;;;;;;-0.40;90.98;102225.69;4988123;28;19922;-75
2022/03/05 01:52:00;;;;;;;;;;;;;;;-0.42;90.44;102214.47;4981708;28;19925;-76
2022/03/05 01:54:26;;;;;;;;;;;;;;;-0.48;91.06;102220.38;4986260;28;19925;-75
2022/03/05 01:56:51;;;;;;;;;;;;;;;-0.48;91.39;102217.78;4987257;28;19984;-74
2022/03/05 01:59:17;;;;;;;;;;;;;;;-0.49;90.69;102212.56;4987464;28;19922;-75
2022/03/05 02:01:42;;;;;;;;;;;;;;;-0.49;90.74;102213.47;4988599;28;19968;-77
2022/03/05 02:04:08;;;;;;;;;;;;;;;-0.50;91.11;102211.72;4985933;28;20404;-75
2022/03/05 02:06:34;;;;;;;;;;;;;;;-0.51;90.56;102209.13;4987936;28;20404;-74
2022/03/05 02:08:59;;;;;;;;;;;;;;;-0.49;91.08;102202.25;4986818;28;19922;-75
2022/03/05 02:11:25;;;;;;;;;;;;;;;-0.56;90.71;102206.44;4986733;28;19967;-74
2022/03/05 02:13:51;;;;;;;;;;;;;;;-0.53;91.61;102205.63;5000868;28;20441;-76
2022/03/05 02:16:17;;;;;;;;;;;;;;;-0.52;91.11;102200.47;4985766;28;19925;-76
2022/03/05 02:18:44;;;;;;;;;;;;;;;-0.57;91.52;102198.63;4987790;28;19922;-75
2022/03/05 02:21:09;;;;;;;;;;;;;;;-0.58;91.34;102200.38;4985186;28;21749;-75
2022/03/05 02:23:34;;;;;;;;;;;;;;;-0.69;91.24;102188.94;4987453;28;20416;-77
2022/03/05 02:26:02;;;;;;;;;;;;;;;-0.64;91.75;102197.63;5001074;28;19922;-76
2022/03/05 02:28:28;;;;;;;;;;;;;;;-0.66;91.25;102194.16;4980558;28;19925;-76
2022/03/05 02:30:54;;;;;;;;;;;;;;;-0.75;92.08;102188.78;4984946;28;19918;-76
2022/03/05 02:33:19;;;;;;;;;;;;;;;-0.80;91.69;102194.72;4985370;28;19918;-74
2022/03/05 02:35:45;;;;;;;;;;;;;;;-0.81;92.24;102193.00;4987548;28;19921;-75
2022/03/05 02:38:11;;;;;;;;;;;;;;;-0.81;92.27;102189.50;4985548;28;19929;-75
2022/03/05 02:40:37;;;;;;;;;;;;;;;-0.87;92.75;102185.09;4974009;28;20362;-73
2022/03/05 02:43:02;;;;;;;;;;;;;;;-0.90;92.77;102186.72;4974731;28;20008;-74
2022/03/05 02:45:27;;;;;;;;;;;;;;;-0.91;93.59;102192.72;4982994;28;19992;-75
2022/03/05 02:47:53;;;;;;;;;;;;;;;-0.86;93.14;102192.00;4985401;28;20011;-75
2022/03/05 02:50:18;;;;;;;;;;;;;;;-0.93;93.15;102195.28;4993271;28;20320;-76
2022/03/05 02:52:43;;;;;;;;;;;;;;;-0.98;93.33;102189.13;4985942;28;19994;-76
2022/03/05 02:55:09;;;;;;;;;;;;;;;-0.97;93.63;102185.72;4985327;28;19918;-75
2022/03/05 02:57:34;;;;;;;;;;;;;;;-1.08;93.99;102193.22;4984843;28;20080;-75
2022/03/05 02:59:59;;;;;;;;;;;;;;;-1.06;93.85;102188.09;4985687;28;19961;-74
2022/03/05 03:02:26;;;;;;;;;;;;;;;-1.10;93.89;102188.00;4964067;28;19918;-74
2022/03/05 03:04:51;;;;;;;;;;;;;;;-1.09;93.46;102188.91;4965736;28;19986;-78
2022/03/05 03:07:17;;;;;;;;;;;;;;;-1.22;94.23;102189.44;4970736;28;20057;-76
2022/03/05 03:09:42;;;;;;;;;;;;;;;-1.18;94.71;102184.38;4976550;28;19930;-75
2022/03/05 03:12:08;;;;;;;;;;;;;;;-1.22;94.19;102190.34;4976130;28;19918;-76
2022/03/05 03:14:34;;;;;;;;;;;;;;;-1.21;94.18;102186.88;4981577;28;19918;-75
2022/03/05 03:16:59;;;;;;;;;;;;;;;-1.21;94.19;102186.88;4985226;28;19918;-76
2022/03/05 03:19:24;;;;;;;;;;;;;;;-1.23;94.42;102185.13;4985769;28;20230;-76
2022/03/05 03:21:49;;;;;;;;;;;;;;;-1.23;93.76;102191.16;4985195;28;19931;-76
2022/03/05 03:24:15;;;;;;;;;;;;;;;-1.33;94.11;102190.06;4985283;28;19952;-76
2022/03/05 03:26:40;;;;;;;;;;;;;;;-1.31;94.23;102185.81;4987518;28;20033;-77
2022/03/05 03:29:05;;;;;;;;;;;;;;;-1.44;94.93;102179.50;4985777;28;20599;-76
2022/03/05 03:31:31;;;;;;;;;;;;;;;-1.45;95.56;102180.31;4986709;28;19929;-76
2022/03/05 03:33:56;;;;;;;;;;;;;;;-1.37;94.99;102174.47;4985501;28;19925;-75
2022/03/05 03:36:21;;;;;;;;;;;;;;;-1.37;95.92;102177.06;4986341;28;20072;-74
2022/03/05 03:38:47;;;;;;;;;;;;;;;-1.36;95.86;102181.38;4987559;28;19917;-77
2022/03/05 03:41:12;;;;;;;;;;;;;;;-1.43;95.31;102177.78;4985228;28;19922;-77
2022/03/05 03:43:38;;;;;;;;;;;;;;;-1.44;95.65;102181.19;4985141;28;19926;-78
2022/03/05 03:46:03;;;;;;;;;;;;;;;-1.50;96.30;102173.31;4985917;28;19975;-77
2022/03/05 03:48:28;;;;;;;;;;;;;;;-1.44;95.79;102171.75;4989132;28;19924;-77
2022/03/05 03:50:54;;;;;;;;;;;;;;;-1.40;96.22;102170.13;4986537;28;19921;-77
2022/03/05 03:53:19;;;;;;;;;;;;;;;-1.39;95.55;102159.00;4985057;28;20268;-78
2022/03/05 03:55:44;;;;;;;;;;;;;;;-1.45;95.19;102167.44;4986649;28;19929;-78
2022/03/05 03:58:10;;;;;;;;;;;;;;;-1.49;95.04;102163.03;4985065;28;19928;-76
2022/03/05 04:00:35;;;;;;;;;;;;;;;-1.45;95.48;102171.72;4987724;28;19921;-78
2022/03/05 04:03:00;;;;;;;;;;;;;;;-1.53;95.43;102171.50;4986489;28;20400;-72
2022/03/05 04:05:26;;;;;;;;;;;;;;;-1.61;95.55;102171.34;4985350;28;20008;-77
2022/03/05 04:10:32;;;;;;;;;;;;;;;-1.65;96.18;102177.25;4999338;28;20396;-74
2022/03/05 04:12:57;;;;;;;;;;;;;;;-1.65;96.19;102173.81;5003152;28;19924;-78
2022/03/05 04:15:23;;;;;;;;;;;;;;;-1.72;96.48;102171.06;5001724;28;19924;-77
2022/03/05 04:17:48;;;;;;;;;;;;;;;-1.73;96.63;102173.59;5001177;28;19918;-77
2022/03/05 04:20:14;;;;;;;;;;;;;;;-1.65;96.58;102176.38;5002239;28;19948;-76
2022/03/05 04:22:39;;;;;;;;;;;;;;;-1.72;96.67;102181.34;4989391;28;19922;-76
2022/03/05 04:25:05;;;;;;;;;;;;;;;-1.63;96.40;102170.44;4979705;28;19957;-76
2022/03/05 04:27:30;;;;;;;;;;;;;;;-1.61;96.19;102173.03;4988529;28;20704;-76
2022/03/05 04:29:55;;;;;;;;;;;;;;;-1.64;96.51;102170.38;4985501;28;19918;-75
2022/03/05 04:32:21;;;;;;;;;;;;;;;-1.66;96.77;102178.06;4986901;28;20197;-75
2022/03/05 04:34:46;;;;;;;;;;;;;;;-1.72;96.42;102178.78;4989354;28;19922;-75
2022/03/05 04:37:11;;;;;;;;;;;;;;;-1.71;97.14;102185.69;4986670;28;19972;-76
2022/03/05 04:39:37;;;;;;;;;;;;;;;-1.69;96.70;102187.44;4985724;28;19957;-77
2022/03/05 04:42:02;;;;;;;;;;;;;;;-1.69;97.66;102183.13;4984104;28;19947;-77
2022/03/05 04:44:28;;;;;;;;;;;;;;;-1.65;97.30;102181.53;4985849;28;19926;-76
2022/03/05 04:46:53;;;;;;;;;;;;;;;-1.64;97.25;102178.09;5003941;28;19918;-77
2022/03/05 04:49:18;;;;;;;;;;;;;;;-1.61;97.41;102175.59;4988977;28;19917;-76
2022/03/05 04:51:44;;;;;;;;;;;;;;;-1.63;96.54;102174.69;4991437;28;20009;-76
2022/03/05 04:54:09;;;;;;;;;;;;;;;-1.66;96.53;102172.91;5020745;28;19921;-75
2022/03/05 04:56:34;;;;;;;;;;;;;;;-1.69;96.68;102174.56;4988914;28;19918;-77
2022/03/05 04:59:00;;;;;;;;;;;;;;;-1.69;97.26;102167.69;4991067;28;19918;-76
2022/03/05 05:01:25;;;;;;;;;;;;;;;-1.77;96.76;102171.78;4988723;28;20296;-77
2022/03/05 05:03:51;;;;;;;;;;;;;;;-1.80;97.54;102177.72;4989035;28;19953;-77
2022/03/05 05:06:16;;;;;;;;;;;;;;;-1.81;97.29;102181.13;4988095;28;19922;-78
2022/03/05 05:08:41;;;;;;;;;;;;;;;-1.78;97.31;102181.22;4988360;28;19918;-77
2022/03/05 05:11:07;;;;;;;;;;;;;;;-1.85;97.98;102187.03;4988259;28;19933;-77
2022/03/05 05:13:33;;;;;;;;;;;;;;;-1.90;97.94;102180.88;4988734;28;19918;-78
2022/03/05 05:15:58;;;;;;;;;;;;;;;-1.85;98.75;102186.16;4989661;28;19918;-77
2022/03/05 05:18:23;;;;;;;;;;;;;;;-1.83;98.82;102187.09;4987979;28;19918;-76
2022/03/05 05:20:49;;;;;;;;;;;;;;;-1.84;99.06;102190.47;4988459;28;19987;-79
2022/03/05 05:23:14;;;;;;;;;;;;;;;-1.84;98.95;102188.75;5019784;28;19921;-77
2022/03/05 05:25:39;;;;;;;;;;;;;;;-1.89;98.39;102183.50;5001594;28;19929;-77
2022/03/05 05:28:05;;;;;;;;;;;;;;;-1.86;99.24;102193.00;4978578;28;19922;-75
2022/03/05 05:30:30;;;;;;;;;;;;;;;-1.91;99.05;102197.16;4988601;28;19922;-76
2022/03/05 05:32:55;;;;;;;;;;;;;;;-1.89;99.44;102190.38;4988088;28;19984;-73
2022/03/05 05:35:21;;;;;;;;;;;;;;;-1.93;98.91;102199.69;4978969;28;19922;-77
2022/03/05 05:37:46;;;;;;;;;;;;;;;-1.96;99.81;102201.31;4982737;28;19925;-75
2022/03/05 05:40:12;;;;;;;;;;;;;;;-1.96;99.52;102206.47;4986762;28;20388;-76
2022/03/05 05:42:37;;;;;;;;;;;;;;;-1.98;99.58;102203.00;5020998;28;20404;-79
2022/03/05 05:45:03;;;;;;;;;;;;;;;-1.99;99.80;102212.41;4987280;28;20348;-78
2022/03/05 05:47:28;;;;;;;;;;;;;;;-1.97;100.00;102213.34;5003257;28;20021;-73
2022/03/05 05:49:54;;;;;;;;;;;;;;;-1.89;100.00;102203.25;5020502;28;19925;-76
2022/03/05 05:52:19;;;;;;;;;;;;;;;-1.93;99.48;102206.56;4991945;28;20051;-78
2022/03/05 05:54:45;;;;;;;;;;;;;;;-1.89;99.28;102201.53;4989630;28;19924;-78
2022/03/05 05:57:10;;;;;;;;;;;;;;;-1.95;99.73;102208.22;4987044;28;19928;-77
2022/03/05 05:59:35;;;;;;;;;;;;;;;-1.87;99.07;102210.19;4990505;28;19929;-76
2022/03/05 06:02:01;;;;;;;;;;;;;;;-1.89;99.53;102205.81;4991313;28;19925;-77
2022/03/05 06:04:26;;;;;;;;;;;;;;;-1.95;99.45;102205.63;4993764;28;20092;-77
2022/03/05 06:06:52;;;;;;;;;;;;;;;-1.95;99.51;102210.78;4991539;28;19965;-77
2022/03/05 06:09:17;;;;;;;;;;;;;;;-2.03;99.50;102214.03;4987408;28;19925;-76
2022/03/05 06:11:42;;;;;;;;;;;;;;;-2.05;99.27;102215.69;4988043;28;19925;-77
2022/03/05 06:14:08;;;;;;;;;;;;;;;-2.00;99.31;102210.66;4987665;28;20385;-76
2022/03/05 06:16:33;;;;;;;;;;;;;;;-1.91;99.73;102215.19;4987417;28;20296;-76
2022/03/05 06:18:58;;;;;;;;;;;;;;;-2.01;99.92;102219.22;4989563;28;19965;-75
2022/03/05 06:21:24;;;;;;;;;;;;;;;-1.98;99.82;102221.03;4986589;28;19926;-76
2022/03/05 06:23:49;;;;;;;;;;;;;;;-2.01;99.19;102224.38;4988506;28;19949;-77
2022/03/05 06:26:15;;;;;;;;;;;;;;;-2.13;99.67;102230.06;4991740;28;19921;-78
2022/03/05 06:28:40;;;;;;;;;;;;;;;-2.11;99.84;102220.69;4991338;28;19918;-79
2022/03/05 06:31:05;;;;;;;;;;;;;;;-2.09;100.00;102226.72;4997428;28;20118;-74
2022/03/05 06:33:31;;;;;;;;;;;;;;;-2.06;100.00;102231.09;5002384;28;19945;-76
2022/03/05 06:35:56;;;;;;;;;;;;;;;-2.04;99.43;102230.31;4987833;28;19964;-75
2022/03/05 06:38:21;;;;;;;;;;;;;;;-1.99;99.88;102232.16;4988145;28;20029;-76
2022/03/05 06:40:47;;;;;;;;;;;;;;;-2.00;99.86;102231.25;4985663;28;19980;-76
2022/03/05 06:43:13;;;;;;;;;;;;;;;-1.94;100.00;102225.41;4987319;28;19953;-76
2022/03/05 06:45:38;;;;;;;;;;;;;;;-1.90;99.52;102228.09;5001498;28;19971;-75
2022/03/05 06:48:04;;;;;;;;;;;;;;;-1.93;99.43;102235.75;5018981;28;19918;-80
2022/03/05 06:50:30;;;;;;;;;;;;;;;-1.92;99.35;102237.50;4987993;28;19928;-77
2022/03/05 06:52:55;;;;;;;;;;;;;;;-1.91;100.00;102231.50;4992063;28;19918;-77
2022/03/05 06:55:21;;;;;;;;;;;;;;;-1.94;99.46;102234.03;4989204;28;19922;-77
2022/03/05 06:57:46;;;;;;;;;;;;;;;-1.84;99.21;102231.69;4986409;28;19922;-77
2022/03/05 07:00:13;;;;;;;;;;;;;;;-1.75;99.17;102227.66;5002940;28;20384;-77
2022/03/05 07:02:38;;;;;;;;;;;;;;;-1.63;98.66;102231.38;4989106;28;19918;-75
2022/03/05 07:05:04;;;;;;;;;;;;;;;-1.67;98.49;102230.44;4986756;28;19976;-76
2022/03/05 07:07:29;;;;;;;;;;;;;;;-1.61;98.36;102234.88;5002184;28;19966;-75
2022/03/05 07:09:55;;;;;;;;;;;;;;;-1.66;98.43;102237.34;4988030;28;19928;-74
2022/03/05 07:12:20;;;;;;;;;;;;;;;-1.63;98.69;102244.28;5017523;28;20023;-74
2022/03/05 07:14:48;;;;;;;;;;;;;;;-1.64;98.62;102250.25;5018421;28;19918;-75
2022/03/05 07:17:14;;;;;;;;;;;;;;;-1.57;97.90;102250.47;4998581;28;20280;-76
2022/03/05 07:19:40;;;;;;;;;;;;;;;-1.41;97.92;102256.88;4980522;28;19918;-77
2022/03/05 07:22:05;;;;;;;;;;;;;;;-1.38;97.56;102261.28;4966726;28;19961;-73
2022/03/05 07:24:30;;;;;;;;;;;;;;;-1.37;97.44;102265.56;4967311;28;19925;-73
2022/03/05 07:26:56;;;;;;;;;;;;;;;-1.31;97.19;102264.84;4983190;28;19917;-73
2022/03/05 07:29:21;;;;;;;;;;;;;;;-1.26;96.63;102266.72;4986482;28;20400;-73
2022/03/05 07:31:46;;;;;;;;;;;;;;;-1.20;96.58;102262.56;4986194;28;19922;-74
2022/03/05 07:34:11;;;;;;;;;;;;;;;-1.11;96.23;102268.81;4984507;28;20342;-72
2022/03/05 07:36:37;;;;;;;;;;;;;;;-1.14;96.23;102268.75;4986491;28;19925;-74
2022/03/05 07:39:04;;;;;;;;;;;;;;;-1.08;95.84;102268.03;4985831;28;19929;-73
2022/03/05 07:41:29;;;;;;;;;;;;;;;-0.96;96.03;102260.59;4987718;28;19917;-71
2022/03/05 07:43:54;;;;;;;;;;;;;;;-0.96;95.51;102259.69;4985561;28;19926;-72
2022/03/05 07:46:19;;;;;;;;;;;;;;;-0.88;95.21;102257.31;4983599;28;20032;-71
2022/03/05 07:48:45;;;;;;;;;;;;;;;-0.85;94.57;102255.66;4980746;28;19918;-72
2022/03/05 07:51:10;;;;;;;;;;;;;;;-0.77;94.15;102255.00;4983270;28;19926;-73
2022/03/05 07:53:35;;;;;;;;;;;;;;;-0.82;94.10;102254.84;4986358;28;20035;-73
2022/03/05 07:56:01;;;;;;;;;;;;;;;-0.71;94.23;102268.03;4982820;28;19922;-73
2022/03/05 07:58:26;;;;;;;;;;;;;;;-0.70;93.59;102259.44;4984448;28;19930;-73
2022/03/05 08:00:51;;;;;;;;;;;;;;;-0.52;94.07;102254.69;4984014;28;19922;-73
2022/03/05 08:03:17;;;;;;;;;;;;;;;-0.43;93.39;102250.56;4983282;28;20013;-73
2022/03/05 08:05:43;;;;;;;;;;;;;;;-0.30;92.91;102254.31;4986164;28;19936;-73
2022/03/05 08:08:09;;;;;;;;;;;;;;;-0.05;91.77;102255.66;4983539;28;20420;-75
2022/03/05 08:10:34;;;;;;;;;;;;;;;-0.18;90.93;102252.84;4984454;28;19929;-70
2022/03/05 08:12:59;;;;;;;;;;;;;;;-0.21;91.33;102257.94;4984140;28;19972;-73
2022/03/05 08:15:25;;;;;;;;;;;;;;;-0.21;91.17;102262.25;4980548;28;20285;-72
2022/03/05 08:17:50;;;;;;;;;;;;;;;-0.05;91.33;102266.00;4985391;28;20027;-72
2022/03/05 08:20:16;;;;;;;;;;;;;;;-0.07;90.25;102260.81;4998399;28;19936;-72
2022/03/05 08:22:45;;;;;;;;;;;;;;;-0.05;90.14;102271.19;5014661;28;20186;-71
2022/03/05 08:25:12;;;;;;;;;;;;;;;-0.01;90.71;102270.41;4981741;28;20409;-71
2022/03/05 08:27:37;;;;;;;;;;;;;;;0.27;90.08;102269.25;4964981;28;21066;-70
2022/03/05 08:30:03;;;;;;;;;;;;;;;0.27;88.91;102263.19;4975379;28;20348;-72
2022/03/05 08:32:28;;;;;;;;;;;;;;;0.22;88.69;102265.69;4987817;28;19997;-70
2022/03/05 08:34:54;;;;;;;;;;;;;;;0.28;88.43;102265.78;4986812;28;19926;-71
2022/03/05 08:37:19;;;;;;;;;;;;;;;0.39;88.22;102263.41;4986704;28;20025;-71
2022/03/05 08:39:44;;;;;;;;;;;;;;;0.95;87.03;102254.03;4986229;28;20484;-72
2022/03/05 08:42:10;;;;;;;;;;;;;;;2.81;82.30;102219.94;4985488;28;19925;-72
2022/03/05 08:44:35;;;;;;;;;;;;;;;4.75;71.22;102160.81;4982940;28;19937;-71
2022/03/05 08:47:00;;;;;;;;;;;;;;;5.71;69.60;102152.69;5016332;28;19922;-69
2022/03/05 08:49:26;;;;;;;;;;;;;;;6.87;64.30;102119.66;4987408;28;20009;-71
2022/03/05 08:51:51;;;;;;;;;;;;;;;7.60;60.77;102124.84;4986870;28;20513;-72
2022/03/05 08:54:17;;;;;;;;;;;;;;;7.97;58.12;102120.84;4983147;28;19944;-71
2022/03/05 08:56:43;;;;;;;;;;;;;;;8.45;56.40;102185.53;4985628;28;19933;-71
2022/03/05 08:59:08;;;;;;;;;;;;;;;6.89;60.07;102232.84;4985127;28;19921;-70
2022/03/05 09:01:34;;;;;;;;;;;;;;;6.78;58.90;102223.31;4985492;28;19926;-72
2022/03/05 09:03:59;;;;;;;;;;;;;;;6.88;59.76;102225.88;4985335;28;19929;-70
2022/03/05 09:06:25;;;;;;;;;;;;;;;7.71;57.18;102226.75;4985225;28;20037;-74
2022/03/05 09:08:50;;;;;;;;;;;;;;;7.03;59.11;102236.16;4986267;28;20332;-74
2022/03/05 09:11:15;;;;;;;;;;;;;;;8.23;57.03;102230.38;4984129;28;19929;-73
2022/03/05 09:13:41;;;;;;;;;;;;;;;8.62;54.64;102235.97;4986550;28;19926;-73
2022/03/05 09:16:06;;;;;;;;;;;;;;;8.28;54.68;102236.44;4979686;28;19930;-74
2022/03/05 09:18:31;;;;;;;;;;;;;;;8.54;54.44;102243.09;4981368;28;20015;-74
2022/03/05 09:20:57;;;;;;;;;;;;;;;7.82;55.89;102250.13;4984261;28;19934;-76
2022/03/05 09:23:22;;;;;;;;;;;;;;;9.50;52.46;102244.03;4983869;28;20439;-72
2022/03/05 09:25:47;;;;;;;;;;;;;;;8.89;52.93;102244.22;4978321;28;19933;-73
2022/03/05 09:28:13;;;;;;;;;;;;;;;9.29;51.97;102247.91;5010862;28;20208;-72
2022/03/05 09:30:38;;;;;;;;;;;;;;;9.82;50.25;102237.25;4981591;28;19954;-71
2022/03/05 09:33:03;;;;;;;;;;;;;;;11.11;47.46;102237.72;4981099;28;20397;-72
2022/03/05 09:35:29;;;;;;;;;;;;;;;11.01;45.39;102236.25;4983201;28;19929;-74
2022/03/05 09:37:54;;;;;;;;;;;;;;;10.79;47.19;102238.59;4985294;28;19932;-72
2022/03/05 09:40:20;;;;;;;;;;;;;;;9.49;50.37;102247.53;4982371;28;20461;-74
2022/03/05 09:42:46;;;;;;;;;;;;;;;10.26;47.64;102238.94;4984567;28;19930;-72
2022/03/05 09:45:12;;;;;;;;;;;;;;;9.55;50.06;102243.94;4979546;28;19930;-73
2022/03/05 09:47:38;;;;;;;;;;;;;;;9.36;50.47;102254.78;4983259;28;19929;-74
2022/03/05 09:50:05;;;;;;;;;;;;;;;9.98;49.01;102248.28;4983431;28;19930;-75
2022/03/05 09:52:31;;;;;;;;;;;;;;;10.52;46.93;102247.13;4985425;28;20169;-76
2022/03/05 09:54:56;;;;;;;;;;;;;;;10.04;50.01;102260.41;4981783;28;20373;-76
2022/03/05 09:57:21;;;;;;;;;;;;;;;10.55;48.39;102254.06;4982596;28;19930;-76
2022/03/05 09:59:47;;;;;;;;;;;;;;;10.33;47.74;102253.63;4985973;28;19976;-75
2022/03/05 10:02:12;;;;;;;;;;;;;;;11.61;45.39;102252.19;4983979;28;20381;-75
2022/03/05 10:04:39;;;;;;;;;;;;;;;10.86;47.23;102245.41;4984421;28;20648;-75
2022/03/05 10:07:20;;;;;;;;;;;;;;;10.19;48.80;102267.97;5014462;28;19985;-75
2022/03/05 10:09:47;;;;;;;;;;;;;;;10.22;49.78;102267.03;4991076;28;20348;-79
2022/03/05 10:12:28;;;;;;;;;;;;;;;10.85;46.12;102251.56;4985342;28;19926;-76
2022/03/05 10:15:08;;;;;;;;;;;;;;;10.40;46.33;102254.41;4981683;28;19925;-75
2022/03/05 10:17:49;;;;;;;;;;;;;;;10.31;48.21;102265.94;4980932;28;20513;-75
2022/03/05 10:20:14;;;;;;;;;;;;;;;10.62;47.14;102263.50;4982062;28;20339;-75
2022/03/05 10:22:55;;;;;;;;;;;;;;;9.38;50.78;102271.34;4984767;28;20407;-72
2022/03/05 10:25:36;;;;;;;;;;;;;;;9.15;51.93;102271.75;4978389;28;19934;-72
2022/03/05 10:28:17;;;;;;;;;;;;;;;10.31;48.71;102264.19;4982379;28;19930;-73
2022/03/05 10:30:44;;;;;;;;;;;;;;;9.85;49.65;102267.81;4984036;28;19964;-71
2022/03/05 10:33:23;;;;;;;;;;;;;;;10.45;48.45;102260.44;4979807;28;19932;-71
2022/03/05 10:35:48;;;;;;;;;;;;;;;10.32;47.42;102252.78;4985274;28;20387;-79
2022/03/05 10:38:14;;;;;;;;;;;;;;;8.60;50.66;102268.31;4989837;28;19925;-78
2022/03/05 10:40:39;;;;;;;;;;;;;;;7.49;54.89;102281.03;4988836;28;20300;-78
2022/03/05 10:43:06;;;;;;;;;;;;;;;8.74;52.05;102263.69;4987025;28;20408;-78
2022/03/05 10:45:48;;;;;;;;;;;;;;;10.26;48.86;102252.91;4984107;28;19991;-76
2022/03/05 10:48:29;;;;;;;;;;;;;;;10.18;49.41;102244.34;4983584;28;20380;-77
2022/03/05 10:50:55;;;;;;;;;;;;;;;10.28;47.18;102240.63;4983886;28;20134;-78
2022/03/05 10:53:34;;;;;;;;;;;;;;;9.26;50.56;102251.47;4984561;28;19930;-76
2022/03/05 10:56:18;;;;;;;;;;;;;;;8.58;52.41;102267.47;4985657;28;19930;-74
2022/03/05 10:58:44;;;;;;;;;;;;;;;8.52;53.22;102271.06;4981983;28;20348;-77
2022/03/05 11:01:09;;;;;;;;;;;;;;;8.55;51.33;102259.66;4982816;28;19933;-75
2022/03/05 11:03:35;;;;;;;;;;;;;;;7.10;56.05;102277.06;4980090;28;20313;-72
2022/03/05 11:06:00;;;;;;;;;;;;;;;6.45;59.28;102279.28;4964683;28;20017;-73
2022/03/05 11:08:26;;;;;;;;;;;;;;;6.31;59.89;102280.22;4979944;28;20174;-73
2022/03/05 11:10:51;;;;;;;;;;;;;;;5.92;62.21;102287.34;4981296;28;19925;-74
2022/03/05 11:13:17;;;;;;;;;;;;;;;5.84;61.71;102278.69;4982243;28;19932;-76
2022/03/05 11:15:44;;;;;;;;;;;;;;;5.89;63.97;102284.75;4985062;28;20352;-77
2022/03/05 11:18:09;;;;;;;;;;;;;;;5.67;63.78;102284.81;4984162;28;19932;-72
2022/03/05 11:20:35;;;;;;;;;;;;;;;5.66;63.61;102277.03;4978178;28;20312;-72
2022/03/05 11:23:02;;;;;;;;;;;;;;;5.41;65.41;102288.34;4986249;28;19961;-74
2022/03/05 11:25:28;;;;;;;;;;;;;;;5.33;65.20;102284.91;4998154;28;19993;-73
2022/03/05 11:28:09;;;;;;;;;;;;;;;5.21;65.67;102291.00;5014201;28;20016;-73
2022/03/05 11:30:49;;;;;;;;;;;;;;;4.89;67.21;102296.22;4978451;28;19941;-73
2022/03/05 11:33:30;;;;;;;;;;;;;;;4.90;66.93;102291.03;4979046;28;20392;-73
2022/03/05 11:36:11;;;;;;;;;;;;;;;5.02;67.82;102282.31;4980790;28;20388;-73
2022/03/05 11:38:37;;;;;;;;;;;;;;;5.02;68.39;102284.03;4972137;28;20278;-75
2022/03/05 11:41:18;;;;;;;;;;;;;;;5.24;67.73;102277.94;4979256;28;20353;-73
2022/03/05 11:43:43;;;;;;;;;;;;;;;5.30;67.12;102277.06;4995647;28;20408;-73
2022/03/05 11:46:19;;;;;;;;;;;;;;;5.05;67.80;102271.91;4989812;28;19921;-75
2022/03/05 11:48:58;;;;;;;;;;;;;;;5.13;67.85;102277.09;4990001;28;19925;-76
2022/03/05 11:51:23;;;;;;;;;;;;;;;5.11;68.44;102273.66;4987096;28;20386;-77
2022/03/05 11:54:01;;;;;;;;;;;;;;;4.96;69.46;102287.56;4983247;28;19942;-76
2022/03/05 11:56:26;;;;;;;;;;;;;;;4.82;68.65;102281.47;4991166;28;19929;-75
2022/03/05 11:58:52;;;;;;;;;;;;;;;4.82;68.76;102282.31;4987896;28;19925;-72
2022/03/05 12:01:33;;;;;;;;;;;;;;;5.09;68.56;102277.97;5012140;28;19930;-72
2022/03/05 12:04:03;;;;;;;;;;;;;;;5.17;68.36;102268.41;4986593;28;19934;-73
2022/03/05 12:06:41;;;;;;;;;;;;;;;5.14;68.75;102275.38;4986302;28;19932;-72
2022/03/05 12:09:06;;;;;;;;;;;;;;;5.05;67.51;102263.22;4984091;28;19934;-72
2022/03/05 12:11:35;;;;;;;;;;;;;;;5.14;67.51;102272.75;4989620;28;20012;-72
2022/03/05 12:14:00;;;;;;;;;;;;;;;4.77;69.34;102284.06;5013198;28;19925;-72
2022/03/05 12:16:27;;;;;;;;;;;;;;;4.86;70.39;102283.19;4986919;28;19972;-71
2022/03/05 12:18:54;;;;;;;;;;;;;;;4.75;70.27;102278.84;4983747;28;19922;-72
2022/03/05 12:21:34;;;;;;;;;;;;;;;4.78;71.37;102281.44;4985523;28;19933;-77
2022/03/05 12:24:01;;;;;;;;;;;;;;;4.87;69.05;102271.88;4988557;28;20579;-78
2022/03/05 12:26:42;;;;;;;;;;;;;;;4.94;69.47;102271.06;4986324;28;20068;-76
2022/03/05 12:29:08;;;;;;;;;;;;;;;4.71;70.06;102274.50;4983036;28;19936;-76
2022/03/05 12:31:37;;;;;;;;;;;;;;;4.64;70.43;102271.03;4983689;28;19930;-77
2022/03/05 12:34:03;;;;;;;;;;;;;;;4.66;70.95;102268.41;4990587;28;20007;-76
2022/03/05 12:36:28;;;;;;;;;;;;;;;4.73;70.64;102272.78;4985826;28;19980;-77
2022/03/05 12:39:09;;;;;;;;;;;;;;;4.71;71.25;102279.72;4986220;28;19929;-76